Time;durP1;ratioP1;P1;durP2;ratioP2;P2;SDS_P1;SDS_P2;PMS_P1;PMS_P2;Temp;Humidity;BMP_temperature;BMP_pressure;BME280_temperature;BME280_humidity;BME280_pressure;Samples;Min_cycle;Max_cycle;Signal;HPM_P1;HPM_P2
2022/06/14 00:01:05;;;;;;;3.17;1.20;;;22.20;57.40;;;;;;5123633;28;20220;-96
2022/06/14 00:03:43;;;;;;;2.63;1.17;;;22.20;57.50;;;;;;5123604;28;20165;-96
2022/06/14 00:06:34;;;;;;;2.90;1.30;;;22.20;57.70;;;;;;5123566;28;20153;-96
2022/06/14 00:09:00;;;;;;;1.67;1.20;;;22.20;57.80;;;;;;5123576;28;20225;-96
2022/06/14 00:11:39;;;;;;;2.60;1.40;;;22.20;58.00;;;;;;5123444;28;20197;-95
2022/06/14 00:14:11;;;;;;;2.47;1.30;;;22.10;58.10;;;;;;5123505;28;20160;-96
2022/06/14 00:16:43;;;;;;;2.47;1.10;;;22.10;58.20;;;;;;5123489;28;20196;-96
2022/06/14 00:19:22;;;;;;;3.70;1.60;;;22.10;58.40;;;;;;5118037;28;20177;-96
2022/06/14 00:22:02;;;;;;;2.07;1.27;;;22.10;58.50;;;;;;5123184;28;20176;-96
2022/06/14 00:24:45;;;;;;;3.00;1.23;;;22.10;58.70;;;;;;5123394;28;20153;-96
2022/06/14 00:27:20;;;;;;;2.37;1.30;;;22.10;58.80;;;;;;5123287;28;20149;-96
2022/06/14 00:29:46;;;;;;;2.73;1.30;;;22.00;58.90;;;;;;5123302;28;20147;-95
2022/06/14 00:32:18;;;;;;;2.30;1.30;;;22.00;59.00;;;;;;5123247;28;20157;-95
2022/06/14 00:34:46;;;;;;;2.10;1.30;;;22.00;59.10;;;;;;5120469;28;20190;-95
2022/06/14 00:37:25;;;;;;;2.97;1.33;;;22.00;59.20;;;;;;5123175;28;20491;-95
2022/06/14 00:39:51;;;;;;;3.40;1.20;;;22.00;59.70;;;;;;5122955;28;20152;-96
2022/06/14 00:42:22;;;;;;;2.13;1.23;;;22.00;59.30;;;;;;5123020;28;20240;-96
2022/06/14 00:45:39;;;;;;;2.17;1.27;;;22.00;59.30;;;;;;5122990;28;20154;-96
2022/06/14 00:48:31;;;;;;;2.30;1.10;;;22.00;59.30;;;;;;5097567;28;20240;-96
2022/06/14 00:51:29;;;;;;;2.73;1.30;;;21.90;59.40;;;;;;5121485;28;20193;-96
2022/06/14 00:54:14;;;;;;;3.07;1.50;;;21.90;59.40;;;;;;5107989;28;20174;-95
2022/06/14 00:57:03;;;;;;;1.93;1.23;;;21.90;59.40;;;;;;5122746;28;20172;-94
2022/06/14 00:59:53;;;;;;;4.23;1.40;;;21.90;59.40;;;;;;5122758;28;20162;-95
2022/06/14 01:02:35;;;;;;;1.47;1.10;;;21.90;59.40;;;;;;5117053;28;20187;-94
2022/06/14 01:05:12;;;;;;;2.47;1.50;;;21.80;59.70;;;;;;5122628;28;20176;-94
2022/06/14 01:07:48;;;;;;;2.13;1.40;;;21.80;59.30;;;;;;5122646;28;20173;-95
2022/06/14 01:10:22;;;;;;;1.93;1.20;;;21.80;59.30;;;;;;5122391;28;20225;-94
2022/06/14 01:12:54;;;;;;;2.20;1.40;;;21.80;59.30;;;;;;5122491;28;20155;-95
2022/06/14 01:15:35;;;;;;;2.80;1.30;;;21.80;59.20;;;;;;5122369;28;20166;-96
2022/06/14 01:18:22;;;;;;;3.20;1.20;;;21.80;59.20;;;;;;5122531;28;20170;-96
2022/06/14 01:21:00;;;;;;;3.53;1.53;;;21.80;59.20;;;;;;5122348;28;20197;-96
2022/06/14 01:23:48;;;;;;;2.60;1.20;;;21.80;59.20;;;;;;5122287;28;20217;-94
2022/06/14 01:26:25;;;;;;;2.40;1.33;;;21.70;59.10;;;;;;5122349;28;20152;-96
2022/06/14 01:28:57;;;;;;;1.47;1.10;;;21.70;59.00;;;;;;5122301;28;20146;-96
2022/06/14 01:31:35;;;;;;;1.87;1.40;;;21.70;59.10;;;;;;5122257;28;20181;-96
2022/06/14 01:34:06;;;;;;;1.90;1.30;;;21.70;59.00;;;;;;5116472;28;20239;-96
2022/06/14 01:36:35;;;;;;;2.47;1.40;;;21.70;59.00;;;;;;5122220;28;20168;-96
2022/06/14 01:39:26;;;;;;;2.27;1.40;;;21.70;58.90;;;;;;5122236;28;20157;-96
2022/06/14 01:42:59;;;;;;;2.67;1.40;;;21.60;58.90;;;;;;5139069;28;20187;-96
2022/06/14 01:46:14;;;;;;;2.43;1.30;;;21.60;58.90;;;;;;5061175;28;20162;-96
2022/06/14 01:52:49;;;;;;;2.30;1.53;;;21.60;58.80;;;;;;5019916;28;20180;-96
2022/06/14 01:55:42;;;;;;;2.80;1.30;;;21.60;58.80;;;;;;5107255;28;20160;-96
2022/06/14 01:58:43;;;;;;;4.23;1.60;;;21.50;58.70;;;;;;5121837;28;20231;-96
2022/06/14 02:01:25;;;;;;;2.40;1.23;;;21.50;58.70;;;;;;5123000;28;20200;-96
2022/06/14 02:07:26;;;;;;;2.13;1.40;;;21.50;58.60;;;;;;5143616;28;20162;-95
2022/06/14 02:10:08;;;;;;;2.30;1.47;;;21.50;58.60;;;;;;5064666;28;20179;-95
2022/06/14 02:13:11;;;;;;;2.53;1.30;;;21.50;58.60;;;;;;5079299;28;20171;-96
2022/06/14 02:16:08;;;;;;;2.97;1.33;;;21.50;58.60;;;;;;5125820;28;20158;-96
2022/06/14 02:18:51;;;;;;;1.77;1.30;;;21.50;58.60;;;;;;5125734;28;20156;-95
2022/06/14 02:21:43;;;;;;;3.13;1.30;;;21.40;58.50;;;;;;5125635;28;20182;-96
2022/06/14 02:24:15;;;;;;;3.20;1.50;;;21.40;58.50;;;;;;5102506;28;20171;-95
2022/06/14 02:27:25;;;;;;;2.43;1.33;;;21.40;58.50;;;;;;5125608;28;20160;-95
2022/06/14 02:30:09;;;;;;;2.30;1.47;;;21.40;58.50;;;;;;5125445;28;20166;-96
2022/06/14 02:32:42;;;;;;;3.23;1.53;;;21.30;58.50;;;;;;5125447;28;20165;-96
2022/06/14 02:35:44;;;;;;;3.20;1.30;;;21.30;58.50;;;;;;5125411;28;20168;-94
2022/06/14 02:38:35;;;;;;;1.50;1.10;;;21.30;58.40;;;;;;5125281;28;20237;-96
2022/06/14 02:41:15;;;;;;;2.27;1.20;;;21.30;58.40;;;;;;5125239;28;20257;-96
2022/06/14 02:44:03;;;;;;;2.23;1.33;;;21.30;58.40;;;;;;5125177;28;20177;-96
2022/06/14 02:46:51;;;;;;;2.77;1.30;;;21.30;58.40;;;;;;5124630;28;20245;-96
2022/06/14 02:49:36;;;;;;;2.33;1.53;;;21.20;58.30;;;;;;5124802;28;20167;-96
2022/06/14 02:52:04;;;;;;;2.10;1.30;;;21.20;58.30;;;;;;5124470;28;20186;-96
2022/06/14 02:54:34;;;;;;;2.20;1.30;;;21.20;58.30;;;;;;5124511;28;20183;-95
2022/06/14 02:57:22;;;;;;;3.07;1.40;;;21.20;58.70;;;;;;5125051;28;20178;-96
2022/06/14 03:00:02;;;;;;;2.80;1.30;;;21.20;58.30;;;;;;5124944;28;20165;-96
2022/06/14 03:02:46;;;;;;;2.37;1.30;;;21.20;58.70;;;;;;5124813;28;20181;-96
2022/06/14 03:05:37;;;;;;;2.23;1.30;;;21.20;58.30;;;;;;5124869;28;20153;-96
2022/06/14 03:08:18;;;;;;;2.33;1.33;;;21.20;58.30;;;;;;5124723;28;20178;-96
2022/06/14 03:11:16;;;;;;;3.10;1.20;;;21.20;58.20;;;;;;5142136;28;20167;-96
2022/06/14 05:00:31;;;;;;;2.43;1.30;;;21.00;58.10;;;;;;6157119;22;20168;-78
2022/06/14 05:03:09;;;;;;;1.93;1.20;;;21.00;58.00;;;;;;5116688;27;20413;-78
2022/06/14 05:05:38;;;;;;;2.57;1.40;;;21.00;58.00;;;;;;5116459;27;20279;-78
2022/06/14 05:08:03;;;;;;;1.63;1.00;;;21.10;58.00;;;;;;5116760;27;20576;-78
2022/06/14 05:10:42;;;;;;;1.20;1.10;;;21.10;58.00;;;;;;5117402;27;20174;-78
2022/06/14 05:13:29;;;;;;;1.20;1.10;;;21.10;58.00;;;;;;5115493;27;20180;-78
2022/06/14 05:16:07;;;;;;;1.37;1.07;;;21.10;58.00;;;;;;5114989;27;20178;-78
2022/06/14 05:19:02;;;;;;;2.70;1.10;;;21.10;57.90;;;;;;5133171;27;20165;-78
2022/06/14 05:21:58;;;;;;;0.93;0.90;;;21.10;57.90;;;;;;5115544;27;20239;-78
2022/06/14 05:24:25;;;;;;;1.17;1.03;;;21.20;57.90;;;;;;5132665;27;20266;-78
2022/06/14 05:27:10;;;;;;;1.83;1.00;;;21.20;57.80;;;;;;5113952;27;20567;-78
2022/06/14 05:29:41;;;;;;;2.20;1.10;;;21.30;57.80;;;;;;5113589;28;20236;-78
2022/06/14 05:32:44;;;;;;;2.30;1.00;;;21.30;57.80;;;;;;5131493;27;20455;-78
2022/06/14 05:35:34;;;;;;;2.37;1.07;;;21.30;57.90;;;;;;5131983;27;20169;-78
2022/06/14 05:38:48;;;;;;;4.00;1.27;;;21.40;57.90;;;;;;5113716;28;20173;-79
2022/06/14 05:41:55;;;;;;;2.47;1.10;;;21.40;57.80;;;;;;5113211;28;20214;-77
2022/06/14 05:44:55;;;;;;;1.73;1.30;;;21.50;57.80;;;;;;5112820;28;20173;-78
2022/06/14 05:48:25;;;;;;;;;;;;;;;;;;;;;
2022/06/14 05:51:09;;;;;;;4.23;1.37;;;21.60;57.60;;;;;;5132661;28;20175;-78
2022/06/14 05:54:36;;;;;;;;;;;;;;;;;;;;;
2022/06/14 05:57:36;;;;;;;6.70;1.70;;;21.80;57.20;;;;;;5128233;28;20350;-78
2022/06/14 06:00:46;;;;;;;2.10;1.40;;;21.90;56.90;;;;;;5118929;28;20276;-78
2022/06/14 06:03:40;;;;;;;4.23;1.60;;;22.10;56.40;;;;;;5118171;28;21086;-77
2022/06/14 06:06:31;;;;;;;;;;;;;;;;;;;;;
2022/06/14 06:13:32;;;;;;;;;;;;;;;;;;;;;
2022/06/14 06:20:16;;;;;;;;;;;;;;;;;;;;;
2022/06/14 06:23:49;;;;;;;;;;;;;;;;;;;;;
2022/06/14 06:38:15;;;;;;;3.77;2.00;;;24.20;51.20;;;;;;4954441;28;20265;-78
2022/06/14 06:44:55;;;;;;;4.93;2.10;;;24.50;50.60;;;;;;5027650;28;20331;-78
2022/06/14 06:57:58;;;;;;;7.90;2.40;;;24.90;49.80;;;;;;5139675;27;20192;-78
2022/06/14 07:00:55;;;;;;;3.30;1.93;;;25.00;49.60;;;;;;5100332;27;20254;-78
2022/06/14 07:03:50;;;;;;;4.90;2.27;;;25.10;49.40;;;;;;5119733;27;20189;-78
2022/06/14 07:10:26;;;;;;;5.30;2.40;;;25.10;49.40;;;;;;5132715;27;20229;-78
2022/06/14 07:13:30;;;;;;;5.40;2.00;;;25.20;49.30;;;;;;5100284;27;20186;-78
2022/06/14 07:16:58;;;;;;;3.58;2.25;;;25.40;49.20;;;;;;5114216;27;20204;-78
2022/06/14 07:20:14;;;;;;;6.88;2.33;;;25.40;49.10;;;;;;5029509;28;20188;-78
2022/06/14 07:23:23;;;;;;;5.32;2.60;;;25.60;49.10;;;;;;5056597;27;20185;-78
2022/06/14 07:25:57;;;;;;;5.60;2.50;;;25.60;48.90;;;;;;5113371;27;20204;-78
2022/06/14 07:29:24;;;;;;;4.13;2.20;;;25.70;48.90;;;;;;5115273;27;20401;-78
2022/06/14 07:36:31;;;;;;;4.43;2.20;;;25.70;48.80;;;;;;4921848;28;20731;-78
2022/06/14 07:43:23;;;;;;;6.60;2.38;;;25.90;48.90;;;;;;5014367;27;20272;-78
2022/06/14 07:46:40;;;;;;;3.63;2.25;;;25.90;48.80;;;;;;5029721;28;20181;-78
2022/06/14 07:50:04;;;;;;;4.50;2.25;;;26.00;48.70;;;;;;5087310;27;20465;-78
2022/06/14 07:56:52;;;;;;;3.88;2.00;;;26.10;48.70;;;;;;5117156;27;20578;-78
2022/06/14 07:59:44;;;;;;;5.10;2.25;;;26.10;48.70;;;;;;5118547;27;20221;-78
2022/06/14 08:02:35;;;;;;;4.18;2.38;;;26.10;48.80;;;;;;5113127;27;20213;-78
2022/06/14 08:05:17;;;;;;;3.55;2.25;;;26.10;48.80;;;;;;5113114;27;20268;-78
2022/06/14 08:07:47;;;;;;;4.85;2.33;;;26.00;49.10;;;;;;5115085;27;20264;-78
2022/06/14 08:10:25;;;;;;;3.67;1.98;;;25.80;49.30;;;;;;5132761;27;20332;-78
2022/06/14 08:13:05;;;;;;;3.95;2.17;;;25.60;49.60;;;;;;5115194;27;20205;-78
2022/06/14 08:15:46;;;;;;;3.67;2.10;;;25.50;49.70;;;;;;5133086;27;20395;-78
2022/06/14 08:18:40;;;;;;;5.00;2.10;;;25.60;49.80;;;;;;5112480;27;20517;-78
2022/06/14 08:21:19;;;;;;;4.15;2.28;;;25.70;49.60;;;;;;5113422;27;20474;-78
2022/06/14 08:24:10;;;;;;;3.67;2.03;;;25.90;49.50;;;;;;5115590;27;20500;-78
2022/06/14 08:26:42;;;;;;;5.25;2.28;;;26.00;49.40;;;;;;5115006;27;20230;-78
2022/06/14 08:29:17;;;;;;;4.88;2.00;;;26.00;49.30;;;;;;5113177;27;20272;-78
2022/06/14 08:31:56;;;;;;;3.28;2.00;;;26.10;49.30;;;;;;5132058;27;20615;-78
2022/06/14 08:35:00;;;;;;;3.55;2.20;;;26.10;49.20;;;;;;5115160;27;20181;-78
2022/06/14 08:37:50;;;;;;;3.28;2.10;;;26.10;49.30;;;;;;5109098;27;20193;-78
2022/06/14 08:40:37;;;;;;;3.42;2.08;;;26.20;49.30;;;;;;5112797;27;20208;-78
2022/06/14 08:43:11;;;;;;;3.13;1.90;;;26.20;49.40;;;;;;5112907;27;20176;-78
2022/06/14 08:45:45;;;;;;;2.80;1.98;;;26.10;49.50;;;;;;5112443;27;20569;-78
2022/06/14 08:48:17;;;;;;;3.85;2.13;;;25.90;49.70;;;;;;5113681;27;20180;-78
2022/06/14 08:51:00;;;;;;;4.03;2.00;;;25.70;49.80;;;;;;5112221;27;20424;-78
2022/06/14 08:53:32;;;;;;;2.93;1.83;;;25.70;50.00;;;;;;5113013;27;20173;-78
2022/06/14 08:56:04;;;;;;;3.47;2.03;;;25.60;50.10;;;;;;5112863;27;20176;-78
2022/06/14 08:58:51;;;;;;;3.53;2.20;;;25.60;50.30;;;;;;5112491;27;20173;-78
2022/06/14 09:01:40;;;;;;;3.70;2.20;;;25.50;50.30;;;;;;5111345;27;20646;-78
2022/06/14 09:04:34;;;;;;;2.27;1.90;;;25.50;50.50;;;;;;5111877;27;20162;-78
2022/06/14 09:07:35;;;;;;;3.00;2.00;;;25.50;50.60;;;;;;5112336;27;20237;-78
2022/06/14 09:10:08;;;;;;;3.43;1.97;;;25.50;50.50;;;;;;5112441;28;20176;-78
2022/06/14 09:12:52;;;;;;;2.78;1.80;;;25.60;50.50;;;;;;5113634;27;20161;-78
2022/06/14 09:15:33;;;;;;;2.90;1.90;;;25.70;50.40;;;;;;5113595;28;20437;-78
2022/06/14 09:18:18;;;;;;;3.13;1.90;;;25.70;50.30;;;;;;5112537;27;20183;-78
2022/06/14 09:21:12;;;;;;;2.80;1.70;;;25.80;50.30;;;;;;5112658;27;20208;-78
2022/06/14 09:23:44;;;;;;;2.78;1.92;;;25.80;50.30;;;;;;5112423;27;20166;-78
2022/06/14 09:26:18;;;;;;;2.80;1.80;;;25.90;50.30;;;;;;5112404;28;20659;-78
2022/06/14 09:29:02;;;;;;;3.20;2.03;;;25.90;50.30;;;;;;5111795;27;20226;-78
2022/06/14 09:31:32;;;;;;;3.22;1.70;;;25.90;50.30;;;;;;5112943;27;20272;-78
2022/06/14 09:34:15;;;;;;;4.63;2.20;;;25.90;50.20;;;;;;5114560;27;20672;-78
2022/06/14 09:37:15;;;;;;;1.98;1.77;;;26.00;50.70;;;;;;5113827;28;20169;-78
2022/06/14 09:40:03;;;;;;;3.45;2.10;;;26.00;50.30;;;;;;5113281;28;20180;-77
2022/06/14 09:42:37;;;;;;;2.25;1.65;;;25.90;50.30;;;;;;5113803;28;20532;-77
2022/06/14 09:45:06;;;;;;;2.17;1.58;;;25.80;50.50;;;;;;5131507;28;20205;-78
2022/06/14 09:48:02;;;;;;;2.47;1.60;;;25.80;50.60;;;;;;5113418;28;20170;-78
2022/06/14 09:50:40;;;;;;;3.85;1.60;;;25.90;50.60;;;;;;5113650;28;20166;-78
2022/06/14 09:53:33;;;;;;;3.25;1.90;;;25.90;50.50;;;;;;5112183;28;20253;-78
2022/06/14 09:56:21;;;;;;;2.35;1.60;;;25.90;50.60;;;;;;5075925;28;20177;-78
2022/06/14 09:58:49;;;;;;;2.85;1.90;;;25.90;50.70;;;;;;5117979;28;20165;-78
2022/06/14 10:01:39;;;;;;;2.72;1.70;;;25.90;50.60;;;;;;5113220;28;20220;-78
2022/06/14 10:04:17;;;;;;;3.55;1.85;;;26.00;50.60;;;;;;5112824;28;20161;-78
2022/06/14 10:07:02;;;;;;;2.63;2.00;;;26.00;50.60;;;;;;5113064;28;20185;-77
2022/06/14 10:10:07;;;;;;;3.60;1.92;;;26.00;50.50;;;;;;5113028;28;20242;-78
2022/06/14 10:12:33;;;;;;;3.70;1.90;;;26.00;50.60;;;;;;5109851;28;20162;-77
2022/06/14 10:15:01;;;;;;;3.17;1.65;;;26.00;50.60;;;;;;5110786;28;20504;-78
2022/06/14 10:17:39;;;;;;;2.35;1.65;;;26.00;50.60;;;;;;5112677;28;20205;-78
2022/06/14 10:20:04;;;;;;;2.28;1.73;;;26.00;50.60;;;;;;5113117;28;20173;-78
2022/06/14 10:22:50;;;;;;;2.75;1.60;;;26.00;50.70;;;;;;5113573;27;20334;-78
2022/06/14 10:28:46;;;;;;;3.10;1.70;;;25.90;50.70;;;;;;5135436;27;20463;-78
2022/06/14 10:31:45;;;;;;;3.13;1.67;;;25.90;50.70;;;;;;5116364;27;20611;-77
2022/06/14 10:38:02;;;;;;;5.50;1.80;;;25.90;50.90;;;;;;5098268;27;20189;-78
2022/06/14 10:40:40;;;;;;;3.40;1.73;;;26.00;50.90;;;;;;5115882;27;20280;-79
2022/06/14 10:43:21;;;;;;;3.72;1.75;;;26.10;50.90;;;;;;5115678;27;20176;-79
2022/06/14 10:45:59;;;;;;;5.72;1.85;;;26.10;50.90;;;;;;5115932;27;20234;-79
2022/06/14 10:48:43;;;;;;;2.93;1.83;;;26.10;50.90;;;;;;5134485;27;20264;-79
2022/06/14 10:51:18;;;;;;;4.27;1.90;;;26.10;50.90;;;;;;5115526;27;20169;-78
2022/06/14 10:53:56;;;;;;;5.40;1.90;;;26.10;51.00;;;;;;5115473;27;20211;-78
2022/06/14 10:57:05;;;;;;;3.97;1.70;;;26.10;51.00;;;;;;5113571;27;20174;-78
2022/06/14 10:59:50;;;;;;;4.23;2.03;;;26.10;51.20;;;;;;5026880;28;20177;-78
2022/06/14 11:02:43;;;;;;;4.27;1.93;;;26.10;51.20;;;;;;5011509;28;20508;-79
2022/06/14 11:05:29;;;;;;;4.17;2.00;;;26.10;51.30;;;;;;5096025;27;20182;-78
2022/06/14 11:08:03;;;;;;;3.87;2.10;;;26.10;51.40;;;;;;5115424;27;20425;-78
2022/06/14 11:10:41;;;;;;;4.20;2.40;;;26.10;51.40;;;;;;5116341;27;20267;-78
2022/06/14 11:13:19;;;;;;;3.97;1.90;;;26.10;51.50;;;;;;5120572;27;20209;-78
2022/06/14 11:16:33;;;;;;;6.20;1.93;;;26.10;51.60;;;;;;5119586;27;20470;-79
2022/06/14 11:19:35;;;;;;;8.33;2.57;;;26.10;51.70;;;;;;5120669;27;20183;-76
2022/06/14 11:22:22;;;;;;;12.20;3.00;;;26.00;53.10;;;;;;5118166;27;20235;-76
2022/06/14 11:25:22;;;;;;;9.37;2.67;;;25.80;53.70;;;;;;5118486;27;20169;-76
2022/06/14 11:27:54;;;;;;;7.57;3.10;;;25.80;53.70;;;;;;5118088;27;20173;-77
2022/06/14 11:30:25;;;;;;;9.23;3.07;;;25.70;53.60;;;;;;5119943;27;20766;-77
2022/06/14 11:32:59;;;;;;;9.20;2.70;;;25.70;50.80;;;;;;5119948;27;20170;-77
2022/06/14 11:35:51;;;;;;;5.20;2.43;;;25.60;53.60;;;;;;5136602;27;20169;-77
2022/06/14 11:38:38;;;;;;;7.40;2.57;;;25.50;53.80;;;;;;5119619;27;20712;-77
2022/06/14 11:41:06;;;;;;;6.70;2.53;;;25.50;53.30;;;;;;5117961;27;20220;-77
2022/06/14 11:43:55;;;;;;;6.20;2.87;;;25.50;52.80;;;;;;5111982;27;20165;-77
2022/06/14 11:46:39;;;;;;;8.33;2.60;;;25.60;52.90;;;;;;5113546;27;20173;-77
2022/06/14 11:49:38;;;;;;;4.53;2.40;;;25.50;53.50;;;;;;5113092;27;20546;-77
2022/06/14 11:52:38;;;;;;;6.57;2.70;;;25.40;53.70;;;;;;5113004;27;20204;-77
2022/06/14 11:55:37;;;;;;;4.60;2.20;;;25.20;53.70;;;;;;5119047;27;20185;-77
2022/06/14 11:58:30;;;;;;;5.80;2.60;;;25.20;53.80;;;;;;5119127;27;20182;-77
2022/06/14 12:01:24;;;;;;;5.57;2.53;;;25.20;52.30;;;;;;5111341;27;20201;-77
2022/06/14 12:04:07;;;;;;;4.50;2.53;;;25.10;53.30;;;;;;5111935;27;20257;-77
2022/06/14 12:06:54;;;;;;;8.03;2.50;;;25.10;53.10;;;;;;5110506;27;20368;-77
2022/06/14 12:09:45;;;;;;;7.00;2.70;;;25.10;51.70;;;;;;5112353;27;20269;-77
2022/06/14 12:12:35;;;;;;;9.53;3.40;;;25.10;52.50;;;;;;5111316;27;20312;-77
2022/06/14 12:15:15;;;;;;;5.67;2.50;;;25.00;48.40;;;;;;5112616;27;20178;-77
2022/06/14 12:18:03;;;;;;;6.70;2.90;;;24.80;52.10;;;;;;5113539;27;20180;-77
2022/06/14 12:20:37;;;;;;;5.70;2.80;;;24.80;51.50;;;;;;5112827;27;20597;-77
2022/06/14 12:23:25;;;;;;;6.03;2.57;;;24.70;51.90;;;;;;5131829;27;20168;-76
2022/06/14 12:28:58;;;;;;;5.43;2.60;;;24.70;51.20;;;;;;5131091;27;20222;-76
2022/06/14 12:31:50;;;;;;;7.70;3.87;;;24.70;51.90;;;;;;5130075;27;20272;-76
2022/06/14 12:34:27;;;;;;;7.80;3.67;;;24.70;49.70;;;;;;5114154;27;20184;-77
2022/06/14 12:36:56;;;;;;;7.17;2.77;;;24.70;48.00;;;;;;5112880;27;20366;-76
2022/06/14 12:39:28;;;;;;;7.20;3.30;;;24.60;49.00;;;;;;5113076;27;20428;-76
2022/06/14 12:42:27;;;;;;;6.67;2.77;;;24.60;50.00;;;;;;5131553;27;20265;-76
2022/06/14 12:45:04;;;;;;;5.20;2.50;;;24.60;50.70;;;;;;5113874;27;20191;-77
2022/06/14 12:47:55;;;;;;;6.53;3.00;;;24.60;51.20;;;;;;5112623;27;20176;-76
2022/06/14 12:50:36;;;;;;;4.20;2.53;;;24.60;51.40;;;;;;5112066;27;20439;-77
2022/06/14 12:53:38;;;;;;;4.53;2.20;;;24.60;51.90;;;;;;5112769;27;20201;-77
2022/06/14 12:56:30;;;;;;;5.33;2.53;;;24.70;51.90;;;;;;5114537;27;20180;-76
2022/06/14 12:59:14;;;;;;;3.80;2.10;;;24.70;51.70;;;;;;5113783;27;20484;-76
2022/06/14 13:01:57;;;;;;;4.10;2.40;;;24.60;51.80;;;;;;5113199;27;20534;-77
2022/06/14 13:04:28;;;;;;;5.60;2.23;;;24.70;51.40;;;;;;5111423;27;20180;-76
2022/06/14 13:07:10;;;;;;;4.03;2.20;;;24.70;52.00;;;;;;5112650;27;20326;-77
2022/06/14 13:10:00;;;;;;;3.50;2.20;;;24.70;52.10;;;;;;5130124;27;20561;-77
2022/06/14 13:13:00;;;;;;;7.07;3.10;;;24.70;52.10;;;;;;5110824;27;20174;-76
2022/06/14 13:15:42;;;;;;;3.43;2.30;;;24.70;51.20;;;;;;5129608;27;20205;-76
2022/06/14 13:18:15;;;;;;;3.50;2.00;;;24.70;52.10;;;;;;5112479;27;20174;-77
2022/06/14 13:21:16;;;;;;;4.67;2.40;;;24.70;52.10;;;;;;5113050;27;20212;-77
2022/06/14 13:24:24;;;;;;;5.13;2.50;;;24.70;52.20;;;;;;5069033;27;20314;-76
2022/06/14 13:26:59;;;;;;;4.70;2.20;;;24.70;51.10;;;;;;5079323;27;20268;-76
2022/06/14 13:29:48;;;;;;;5.43;2.70;;;24.70;51.80;;;;;;5112059;28;20237;-76
2022/06/14 13:32:38;;;;;;;4.47;2.60;;;24.70;51.40;;;;;;5111608;27;20176;-77
2022/06/14 13:35:32;;;;;;;6.00;2.27;;;24.70;51.40;;;;;;5100574;28;20422;-76
2022/06/14 13:38:08;;;;;;;5.43;2.70;;;24.80;51.90;;;;;;5110963;28;20177;-76
2022/06/14 13:40:37;;;;;;;7.07;2.80;;;24.70;51.50;;;;;;5131155;28;20273;-76
2022/06/14 13:43:17;;;;;;;4.47;2.40;;;24.80;51.30;;;;;;5110722;28;20166;-76
2022/06/14 13:45:55;;;;;;;3.37;2.20;;;24.80;51.90;;;;;;5113022;28;20171;-76
2022/06/14 13:48:39;;;;;;;3.97;2.40;;;24.80;52.10;;;;;;5113842;28;20234;-77
2022/06/14 13:51:18;;;;;;;5.90;2.37;;;24.70;52.00;;;;;;5125559;27;20189;-76
2022/06/14 13:53:49;;;;;;;4.97;2.17;;;24.80;51.40;;;;;;5129769;28;20172;-76
2022/06/14 13:56:49;;;;;;;5.33;2.27;;;24.80;51.70;;;;;;5112471;27;20245;-76
2022/06/14 13:59:35;;;;;;;4.43;2.10;;;24.70;51.90;;;;;;5058402;27;20184;-75
2022/06/14 14:02:26;;;;;;;3.87;2.10;;;24.80;50.80;;;;;;5114662;27;20366;-76
2022/06/14 14:04:55;;;;;;;6.40;2.10;;;24.80;51.80;;;;;;5114255;27;20172;-76
2022/06/14 14:07:42;;;;;;;4.30;2.50;;;24.80;51.60;;;;;;5114510;27;20577;-77
2022/06/14 14:10:19;;;;;;;3.43;2.20;;;24.70;51.80;;;;;;5114486;27;20206;-77
2022/06/14 14:12:56;;;;;;;4.43;2.20;;;24.70;51.20;;;;;;5133808;27;20197;-75
2022/06/14 14:15:31;;;;;;;2.63;2.00;;;24.80;51.70;;;;;;5113349;27;20167;-77
2022/06/14 14:18:09;;;;;;;3.33;1.90;;;24.70;51.30;;;;;;5113676;27;20418;-77
2022/06/14 14:20:53;;;;;;;4.43;2.00;;;24.70;51.40;;;;;;5112915;27;20212;-76
2022/06/14 14:23:25;;;;;;;4.50;2.27;;;24.80;51.50;;;;;;5130470;27;20226;-76
2022/06/14 14:25:54;;;;;;;3.67;1.93;;;24.80;51.40;;;;;;5132427;27;20248;-77
2022/06/14 14:28:37;;;;;;;3.77;1.93;;;24.80;51.50;;;;;;5115891;27;20264;-77
2022/06/14 14:31:23;;;;;;;4.27;2.00;;;24.80;50.80;;;;;;5116670;27;20275;-76
2022/06/14 14:33:48;;;;;;;3.23;1.97;;;24.80;50.80;;;;;;5114984;27;20181;-76
2022/06/14 14:36:42;;;;;;;3.97;2.00;;;24.80;51.20;;;;;;5113933;27;20321;-76
2022/06/14 14:39:30;;;;;;;5.73;2.10;;;24.80;51.20;;;;;;5115526;27;20445;-77
2022/06/14 14:42:21;;;;;;;3.33;2.10;;;24.80;51.30;;;;;;5073531;27;20552;-77
2022/06/14 14:45:02;;;;;;;7.70;3.27;;;24.80;51.30;;;;;;5113132;27;20185;-78
2022/06/14 14:48:09;;;;;;;5.10;2.37;;;24.80;49.00;;;;;;5113461;27;20181;-78
2022/06/14 14:50:52;;;;;;;6.50;2.60;;;24.90;49.10;;;;;;5132426;27;20165;-78
2022/06/14 14:53:47;;;;;;;3.37;1.97;;;24.90;48.80;;;;;;5114178;27;20174;-78
2022/06/14 14:56:42;;;;;;;7.47;2.83;;;25.00;49.50;;;;;;5101663;27;20464;-78
2022/06/14 14:59:20;;;;;;;1.90;1.63;;;25.00;48.90;;;;;;5041182;27;20283;-78
2022/06/14 15:05:31;;;;;;;3.17;1.90;;;25.10;48.00;;;;;;5087576;27;20292;-78
2022/06/14 15:08:26;;;;;;;5.33;2.33;;;25.10;50.10;;;;;;5113529;27;20573;-77
2022/06/14 15:11:07;;;;;;;5.07;2.03;;;25.10;48.50;;;;;;5114381;27;20196;-78
2022/06/14 15:13:34;;;;;;;6.13;2.70;;;25.20;48.50;;;;;;5114468;27;20170;-78
2022/06/14 15:16:05;;;;;;;5.83;2.30;;;25.20;48.20;;;;;;5114099;27;20229;-78
2022/06/14 15:21:27;;;;;;;4.83;2.43;;;25.20;48.60;;;;;;5130971;27;20200;-78
2022/06/14 15:24:00;;;;;;;3.70;2.13;;;25.20;48.20;;;;;;5112103;27;20260;-78
2022/06/14 15:26:28;;;;;;;3.63;1.77;;;25.20;48.80;;;;;;5111112;27;20200;-78
2022/06/14 15:28:58;;;;;;;3.33;2.00;;;25.20;50.30;;;;;;5129071;27;20215;-78
2022/06/14 15:31:24;;;;;;;5.07;2.80;;;25.20;49.80;;;;;;5129415;27;20361;-78
2022/06/14 15:33:51;;;;;;;6.37;3.63;;;25.20;47.90;;;;;;5115594;27;20170;-78
2022/06/14 15:36:31;;;;;;;3.87;2.57;;;25.20;46.90;;;;;;5113837;27;20173;-78
2022/06/14 15:39:20;;;;;;;6.50;3.07;;;25.20;49.50;;;;;;5112734;27;20546;-78
2022/06/14 15:41:47;;;;;;;3.50;2.40;;;25.20;48.00;;;;;;5112688;27;20493;-78
2022/06/14 15:44:13;;;;;;;3.43;2.00;;;25.20;48.40;;;;;;5112570;27;20170;-78
2022/06/14 15:46:50;;;;;;;3.20;1.97;;;25.20;48.60;;;;;;5112910;27;20176;-78
2022/06/14 15:49:22;;;;;;;5.40;2.60;;;25.20;50.20;;;;;;5113659;27;20208;-77
2022/06/14 15:51:48;;;;;;;4.37;2.10;;;25.20;48.40;;;;;;5118046;27;20169;-77
2022/06/14 15:54:35;;;;;;;5.37;2.97;;;25.20;48.90;;;;;;5113196;27;20718;-78
2022/06/14 15:57:16;;;;;;;3.47;1.97;;;25.20;48.00;;;;;;5112887;27;20261;-78
2022/06/14 15:59:46;;;;;;;6.90;2.87;;;25.20;48.90;;;;;;5132193;27;20173;-76
2022/06/14 16:02:34;;;;;;;6.93;2.87;;;25.20;47.10;;;;;;5112201;27;20698;-78
2022/06/14 16:05:01;;;;;;;7.20;3.10;;;25.20;47.90;;;;;;5132265;27;20161;-78
2022/06/14 16:07:31;;;;;;;5.00;2.10;;;25.10;48.00;;;;;;5113960;27;20161;-78
2022/06/14 16:10:04;;;;;;;6.93;2.80;;;25.20;49.20;;;;;;5113416;27;20692;-78
2022/06/14 16:13:01;;;;;;;3.87;1.93;;;25.20;48.90;;;;;;5112975;27;20597;-78
2022/06/14 16:15:36;;;;;;;3.93;2.00;;;25.20;50.00;;;;;;5126994;27;20190;-77
2022/06/14 16:18:30;;;;;;;3.13;1.93;;;25.20;49.70;;;;;;5113079;27;20196;-78
2022/06/14 16:21:11;;;;;;;4.20;2.47;;;25.20;48.90;;;;;;5112796;27;20204;-78
2022/06/14 16:23:39;;;;;;;7.27;3.43;;;25.10;47.60;;;;;;5112315;27;20173;-78
2022/06/14 16:26:34;;;;;;;5.17;2.53;;;25.10;48.30;;;;;;5119093;27;20173;-77
2022/06/14 16:29:12;;;;;;;5.13;2.20;;;25.10;49.40;;;;;;5119785;27;20190;-77
2022/06/14 16:32:04;;;;;;;3.20;2.00;;;25.10;49.90;;;;;;5118202;27;20211;-77
2022/06/14 16:34:55;;;;;;;6.87;3.43;;;25.10;50.30;;;;;;5134366;27;20261;-76
2022/06/14 16:37:52;;;;;;;9.47;3.23;;;25.10;47.80;;;;;;5116907;27;20476;-77
2022/06/14 16:40:46;;;;;;;6.87;3.37;;;25.10;48.70;;;;;;5112311;27;20189;-77
2022/06/14 16:43:25;;;;;;;7.73;3.30;;;25.10;47.50;;;;;;5112665;27;20624;-77
2022/06/14 16:45:56;;;;;;;8.63;3.27;;;25.10;47.30;;;;;;5111665;27;20196;-77
2022/06/14 16:48:53;;;;;;;6.40;3.30;;;25.10;48.00;;;;;;5111360;27;20179;-77
2022/06/14 16:51:33;;;;;;;5.83;1.90;;;25.10;48.20;;;;;;5111690;27;20181;-76
2022/06/14 16:54:14;;;;;;;3.80;2.13;;;25.10;49.70;;;;;;5112645;27;20183;-77
2022/06/14 16:56:49;;;;;;;3.27;1.90;;;25.10;48.80;;;;;;5129979;27;20179;-77
2022/06/14 16:59:24;;;;;;;4.37;1.90;;;25.10;50.20;;;;;;5111485;27;20201;-77
2022/06/14 17:02:05;;;;;;;6.87;3.00;;;25.10;50.70;;;;;;5111337;27;20260;-77
2022/06/14 17:04:37;;;;;;;6.17;3.90;;;25.10;48.30;;;;;;5129036;27;20165;-77
2022/06/14 17:07:20;;;;;;;8.07;3.20;;;25.10;47.00;;;;;;5111700;27;20502;-77
2022/06/14 17:09:55;;;;;;;6.20;2.23;;;25.10;49.20;;;;;;5113513;27;20196;-77
2022/06/14 17:12:34;;;;;;;4.17;2.23;;;25.10;50.70;;;;;;5112490;27;20317;-76
2022/06/14 17:15:10;;;;;;;6.00;2.47;;;25.10;49.60;;;;;;5111566;27;20564;-76
2022/06/14 17:18:04;;;;;;;5.73;3.23;;;25.10;49.80;;;;;;5130449;27;20165;-77
2022/06/14 17:20:40;;;;;;;3.83;2.07;;;25.10;50.00;;;;;;5111098;27;20165;-77
2022/06/14 17:23:15;;;;;;;5.63;2.77;;;25.10;50.50;;;;;;5111810;27;20399;-77